Time;durP1;ratioP1;P1;durP2;ratioP2;P2;SDS_P1;SDS_P2;PMS_P1;PMS_P2;Temp;Humidity;BMP_temperature;BMP_pressure;BME280_temperature;BME280_humidity;BME280_pressure;Samples;Min_cycle;Max_cycle;Signal;HPM_P1;HPM_P2
2023/12/12 00:01:10;;;;;;;6.93;2.57;;;;;;;18.90;55.24;99808.53;4948004;29;20221;-75
2023/12/12 00:03:35;;;;;;;10.77;3.37;;;;;;;18.91;55.31;99815.91;4934390;29;20872;-75
2023/12/12 00:06:00;;;;;;;11.97;2.73;;;;;;;18.91;55.59;99815.09;4935077;29;20547;-75
2023/12/12 00:08:26;;;;;;;12.87;3.80;;;;;;;18.92;55.21;99820.38;4929913;28;20741;-74
2023/12/12 00:10:51;;;;;;;6.63;2.30;;;;;;;18.88;55.50;99813.84;4944766;29;20180;-72
2023/12/12 00:13:17;;;;;;;7.77;2.30;;;;;;;18.88;55.84;99813.84;4928198;29;20184;-75
2023/12/12 00:15:42;;;;;;;12.50;3.57;;;;;;;18.87;55.86;99823.63;4966728;28;20685;-75
2023/12/12 00:18:08;;;;;;;7.77;2.63;;;;;;;18.88;55.61;99824.44;4922162;29;20196;-74
2023/12/12 00:20:33;;;;;;;5.93;2.03;;;;;;;18.91;55.33;99833.06;4917048;29;20648;-74
2023/12/12 00:22:59;;;;;;;5.60;2.50;;;;;;;18.87;55.53;99823.63;4942612;29;20211;-75
2023/12/12 00:25:25;;;;;;;8.17;2.23;;;;;;;18.86;56.27;99819.13;4936782;29;20219;-75
2023/12/12 00:27:50;;;;;;;6.90;2.30;;;;;;;18.91;55.29;99823.66;4971570;28;20492;-74
2023/12/12 00:30:16;;;;;;;10.60;2.70;;;;;;;18.87;55.57;99811.38;4952764;28;20226;-75
2023/12/12 00:32:41;;;;;;;5.53;1.93;;;;;;;18.90;55.60;99822.84;4935151;29;20196;-74
2023/12/12 00:35:07;;;;;;;7.10;2.57;;;;;;;18.89;55.41;99821.19;4934801;29;20212;-75
2023/12/12 00:37:32;;;;;;;6.63;2.40;;;;;;;18.88;55.82;99810.16;4912364;29;20621;-72
2023/12/12 00:39:58;;;;;;;7.77;2.33;;;;;;;18.89;55.71;99817.50;4946221;29;20164;-74
2023/12/12 00:42:23;;;;;;;5.80;2.40;;;;;;;18.88;55.48;99807.28;4927323;29;20199;-74
2023/12/12 00:44:49;;;;;;;4.17;2.00;;;;;;;18.88;55.67;99808.13;4970828;28;20190;-75
2023/12/12 00:47:14;;;;;;;4.70;2.30;;;;;;;18.83;56.29;99819.94;4931956;29;20251;-74
2023/12/12 00:49:40;;;;;;;10.00;2.40;;;;;;;18.84;55.80;99815.00;4928928;29;20195;-74
2023/12/12 00:52:07;;;;;;;8.77;2.50;;;;;;;18.86;55.70;99819.13;4951514;29;20175;-74
2023/12/12 00:54:32;;;;;;;5.93;2.50;;;;;;;18.82;56.28;99814.59;4938004;28;20207;-67
2023/12/12 00:56:58;;;;;;;7.43;2.30;;;;;;;18.84;56.12;99812.16;4961088;28;20795;-67
2023/12/12 00:59:23;;;;;;;7.63;2.70;;;;;;;18.85;56.07;99817.47;4964198;28;20179;-68
2023/12/12 01:01:48;;;;;;;5.70;2.20;;;;;;;18.87;55.69;99809.31;4947745;28;20607;-67
2023/12/12 01:04:14;;;;;;;4.47;2.10;;;;;;;18.84;56.35;99807.25;4945179;28;20179;-67
2023/12/12 01:06:39;;;;;;;7.10;2.33;;;;;;;18.85;55.99;99808.91;4944338;29;20176;-68
2023/12/12 01:09:05;;;;;;;4.43;2.37;;;;;;;18.85;55.95;99810.94;4929487;29;20208;-67
2023/12/12 01:11:30;;;;;;;6.70;2.60;;;;;;;18.83;56.12;99805.63;4926166;29;20199;-68
2023/12/12 01:13:56;;;;;;;5.90;2.57;;;;;;;18.83;56.21;99785.59;4941714;29;20194;-67
2023/12/12 01:16:21;;;;;;;6.10;2.20;;;;;;;18.85;55.76;99779.47;4945136;28;20666;-68
2023/12/12 01:18:46;;;;;;;4.33;2.03;;;;;;;18.85;56.30;99776.59;4941681;29;20191;-67
2023/12/12 01:21:12;;;;;;;4.47;2.00;;;;;;;18.85;56.16;99774.56;4937181;28;20250;-67
2023/12/12 01:23:50;;;;;;;7.77;2.27;;;;;;;18.82;56.72;99783.94;4915867;29;20187;-67
2023/12/12 01:26:17;;;;;;;6.00;2.50;;;;;;;18.81;56.60;99782.31;4932483;29;20187;-67
2023/12/12 01:28:42;;;;;;;6.00;2.47;;;;;;;18.82;56.67;99781.06;4939935;28;20966;-68
2023/12/12 01:31:08;;;;;;;5.97;2.10;;;;;;;18.82;56.44;99775.34;4951906;28;20471;-67
2023/12/12 01:33:33;;;;;;;7.43;2.20;;;;;;;18.84;56.44;99790.09;4920777;29;20264;-67
2023/12/12 01:35:59;;;;;;;5.57;1.90;;;;;;;18.84;56.10;99784.38;4915171;29;20207;-67
2023/12/12 01:38:24;;;;;;;4.50;1.90;;;;;;;18.83;56.24;99785.59;4929151;29;20644;-67
2023/12/12 01:40:49;;;;;;;6.97;1.80;;;;;;;18.83;56.04;99764.75;4953416;28;20191;-67
2023/12/12 01:43:25;;;;;;;4.90;2.10;;;;;;;18.82;56.70;99772.50;4914880;29;20223;-67
2023/12/12 01:45:50;;;;;;;4.03;1.90;;;;;;;18.83;56.54;99774.16;4951796;28;20265;-67
2023/12/12 01:48:15;;;;;;;6.17;2.03;;;;;;;18.86;56.19;99769.69;4915084;29;21103;-67
2023/12/12 01:50:41;;;;;;;4.50;1.97;;;;;;;18.84;56.33;99772.09;4941846;28;20184;-67
2023/12/12 01:53:06;;;;;;;7.03;2.73;;;;;;;18.83;56.44;99765.59;4928286;29;20723;-67
2023/12/12 01:55:32;;;;;;;7.03;2.80;;;;;;;18.85;55.89;99762.31;4919461;29;20946;-68
2023/12/12 01:57:57;;;;;;;5.97;2.17;;;;;;;18.89;56.20;99758.28;4959653;28;20188;-67
2023/12/12 02:00:38;;;;;;;6.70;2.00;;;;;;;18.86;56.29;99756.19;4955469;28;20852;-67
2023/12/12 02:03:03;;;;;;;3.87;1.77;;;;;;;18.86;56.33;99763.97;4946975;28;20207;-67
2023/12/12 02:05:29;;;;;;;4.83;2.00;;;;;;;18.88;56.37;99759.50;4929120;29;20435;-67
2023/12/12 02:07:54;;;;;;;5.07;2.27;;;;;;;18.86;56.03;99769.69;4912808;29;20715;-67
2023/12/12 02:10:21;;;;;;;3.87;1.90;;;;;;;18.87;56.18;99751.31;4938961;28;20195;-67
2023/12/12 02:12:46;;;;;;;5.83;1.90;;;;;;;18.87;56.38;99746.38;4922007;29;20194;-67
2023/12/12 02:15:12;;;;;;;5.57;2.07;;;;;;;18.88;56.57;99750.91;4920027;29;20469;-68
2023/12/12 02:17:37;;;;;;;6.63;2.10;;;;;;;18.94;56.06;99762.78;4945716;28;20183;-68
2023/12/12 02:20:04;;;;;;;5.03;2.07;;;;;;;18.90;56.39;99774.22;4931507;29;20176;-67
2023/12/12 02:22:29;;;;;;;4.90;2.13;;;;;;;18.91;56.48;99763.59;4920523;29;20214;-67
2023/12/12 02:24:54;;;;;;;3.70;1.87;;;;;;;18.90;56.36;99759.91;4934849;29;20395;-67
2023/12/12 02:27:20;;;;;;;2.83;1.43;;;;;;;18.91;55.95;99761.53;4925778;29;20624;-67
2023/12/12 02:29:45;;;;;;;2.60;1.57;;;;;;;18.94;55.95;99757.91;4912503;29;21422;-67
2023/12/12 02:32:11;;;;;;;3.63;1.60;;;;;;;18.94;56.19;99762.78;4951159;28;20179;-67
2023/12/12 02:34:36;;;;;;;4.30;1.90;;;;;;;18.95;55.89;99764.44;4949212;29;20195;-67
2023/12/12 02:37:01;;;;;;;3.73;1.63;;;;;;;18.94;56.16;99755.03;4931010;29;20203;-68
2023/12/12 02:39:27;;;;;;;3.47;1.70;;;;;;;18.95;56.14;99756.69;4960166;28;20180;-67
2023/12/12 02:41:52;;;;;;;6.30;1.83;;;;;;;18.95;56.56;99753.81;4976464;28;20203;-67
2023/12/12 02:44:18;;;;;;;5.70;2.00;;;;;;;18.96;56.32;99749.75;4930423;29;20180;-67
2023/12/12 02:46:43;;;;;;;7.73;2.27;;;;;;;18.97;56.47;99747.72;4898215;29;20191;-67
2023/12/12 02:49:09;;;;;;;4.00;1.93;;;;;;;18.95;56.29;99748.09;4946154;29;20179;-67
2023/12/12 02:51:35;;;;;;;4.70;1.90;;;;;;;18.95;56.33;99738.69;4945805;29;20798;-67
2023/12/12 02:54:00;;;;;;;3.73;1.83;;;;;;;18.99;56.25;99725.22;4931700;29;20432;-68
2023/12/12 02:56:31;;;;;;;4.27;1.60;;;;;;;19.04;55.96;99714.25;4908034;29;20194;-67
2023/12/12 02:58:56;;;;;;;4.73;2.03;;;;;;;19.01;56.28;99708.50;4945859;29;20282;-67
2023/12/12 03:01:22;;;;;;;3.63;1.80;;;;;;;19.02;56.12;99719.53;4970177;28;20415;-68
2023/12/12 03:03:47;;;;;;;5.70;1.57;;;;;;;19.05;55.97;99709.34;4925913;29;20187;-67
2023/12/12 03:06:12;;;;;;;3.33;1.70;;;;;;;19.04;56.20;99704.84;4962430;28;20180;-67
2023/12/12 03:08:38;;;;;;;4.90;1.80;;;;;;;19.04;56.18;99705.66;4930663;29;20250;-67
2023/12/12 03:11:03;;;;;;;4.40;1.67;;;;;;;19.05;55.76;99710.16;4929347;29;20184;-67
2023/12/12 03:13:29;;;;;;;6.47;2.17;;;;;;;19.05;56.14;99703.59;4931252;29;20180;-68
2023/12/12 03:15:54;;;;;;;2.87;1.47;;;;;;;19.09;55.99;99707.31;4918303;29;20615;-73
2023/12/12 03:18:19;;;;;;;3.60;2.17;;;;;;;19.09;55.90;99708.16;4940038;28;20207;-74
2023/12/12 03:20:45;;;;;;;4.37;2.23;;;;;;;19.08;55.89;99697.09;4922312;29;20187;-73
2023/12/12 03:23:11;;;;;;;5.77;2.00;;;;;;;19.07;55.92;99695.47;4933738;28;20266;-73
2023/12/12 03:25:37;;;;;;;4.53;1.90;;;;;;;19.12;55.75;99686.50;4914736;29;20199;-72
2023/12/12 03:28:02;;;;;;;4.67;1.87;;;;;;;19.07;56.00;99679.09;4960429;28;20440;-73
2023/12/12 03:30:28;;;;;;;3.27;1.80;;;;;;;19.11;55.88;99668.50;4958723;28;20315;-73
2023/12/12 03:32:53;;;;;;;4.73;1.43;;;;;;;19.11;56.29;99664.84;4918072;29;20176;-73
2023/12/12 03:35:19;;;;;;;3.30;2.00;;;;;;;19.10;56.09;99655.44;4931946;29;20226;-73
2023/12/12 03:37:44;;;;;;;3.90;1.60;;;;;;;19.15;56.10;99660.78;4928257;29;20239;-73
2023/12/12 03:40:10;;;;;;;2.80;1.47;;;;;;;19.15;56.41;99659.94;4953975;28;20184;-73
2023/12/12 03:42:35;;;;;;;3.90;1.60;;;;;;;19.12;56.15;99641.53;4937281;29;20224;-73
2023/12/12 03:45:01;;;;;;;3.30;1.60;;;;;;;19.17;56.17;99657.50;4950371;28;20588;-73
2023/12/12 03:47:26;;;;;;;3.27;1.30;;;;;;;19.19;56.21;99653.03;4900980;29;20279;-73
2023/12/12 03:49:52;;;;;;;4.00;1.90;;;;;;;19.16;56.08;99656.69;4938166;28;20183;-72
2023/12/12 03:52:17;;;;;;;4.00;2.20;;;;;;;19.18;55.90;99651.41;4897390;29;20197;-73
2023/12/12 03:54:43;;;;;;;2.93;1.50;;;;;;;19.20;55.66;99650.97;4942112;29;20184;-73
2023/12/12 03:57:08;;;;;;;5.87;1.90;;;;;;;19.20;56.12;99645.25;4925279;29;20191;-72
2023/12/12 03:59:33;;;;;;;3.70;1.37;;;;;;;19.19;55.89;99641.59;4944265;28;20183;-72
2023/12/12 04:01:59;;;;;;;8.83;2.47;;;;;;;19.19;56.00;99644.44;4919367;29;20192;-73
2023/12/12 04:04:24;;;;;;;3.80;1.67;;;;;;;19.21;55.90;99635.47;4923003;29;20536;-73
2023/12/12 04:06:50;;;;;;;4.43;1.57;;;;;;;19.23;55.79;99636.72;4930103;29;20674;-73
2023/12/12 04:09:15;;;;;;;3.73;1.70;;;;;;;19.28;55.66;99635.50;4930858;29;20183;-73
2023/12/12 04:11:41;;;;;;;3.73;1.53;;;;;;;19.26;56.01;99644.50;4957252;28;20951;-73
2023/12/12 04:14:07;;;;;;;3.43;1.77;;;;;;;19.27;55.82;99643.28;4946339;29;20252;-73
2023/12/12 04:16:32;;;;;;;5.93;1.83;;;;;;;19.25;56.28;99651.44;4921426;29;20184;-72
2023/12/12 04:18:57;;;;;;;3.50;1.80;;;;;;;19.28;55.98;99649.81;4962941;28;20203;-73
2023/12/12 04:21:23;;;;;;;2.33;1.33;;;;;;;19.32;55.71;99650.66;4915987;29;20188;-73
2023/12/12 04:23:48;;;;;;;2.80;1.33;;;;;;;19.31;55.84;99649.84;4932524;29;20624;-67
2023/12/12 04:26:14;;;;;;;3.50;1.77;;;;;;;19.29;55.90;99651.47;4915765;29;20700;-67
2023/12/12 04:28:39;;;;;;;4.33;1.40;;;;;;;19.32;55.78;99644.94;4935436;29;20628;-67
2023/12/12 04:31:05;;;;;;;2.80;1.57;;;;;;;19.37;55.82;99653.16;4918136;29;20228;-67
2023/12/12 04:33:30;;;;;;;2.57;1.27;;;;;;;19.34;56.11;99651.91;4932847;28;20290;-67
2023/12/12 04:35:56;;;;;;;3.07;1.70;;;;;;;19.33;55.67;99647.41;4901256;29;20255;-68
2023/12/12 04:38:21;;;;;;;3.70;1.70;;;;;;;19.37;55.46;99653.16;4948995;29;20335;-67
2023/12/12 04:40:47;;;;;;;3.20;1.40;;;;;;;19.38;55.60;99641.31;4961467;28;20183;-67
2023/12/12 04:43:12;;;;;;;3.53;1.57;;;;;;;19.37;55.76;99642.50;4934480;29;20385;-68
2023/12/12 04:45:38;;;;;;;3.67;1.70;;;;;;;19.35;56.01;99650.69;4937944;29;20194;-67
2023/12/12 04:48:04;;;;;;;3.27;1.60;;;;;;;19.37;55.83;99638.84;4915869;29;21076;-67
2023/12/12 04:50:29;;;;;;;3.47;1.40;;;;;;;19.39;55.73;99645.78;4970552;28;20210;-68
2023/12/12 04:52:55;;;;;;;3.17;1.50;;;;;;;19.41;55.94;99646.19;4938273;29;20195;-68
2023/12/12 04:55:20;;;;;;;4.20;1.87;;;;;;;19.39;55.81;99631.47;4915926;29;20206;-67
2023/12/12 04:57:46;;;;;;;2.90;1.30;;;;;;;19.42;55.77;99627.78;4946568;29;20187;-67
2023/12/12 05:00:14;;;;;;;3.60;1.90;;;;;;;19.40;55.93;99635.97;4961142;28;20186;-67
2023/12/12 05:02:41;;;;;;;3.33;1.40;;;;;;;19.45;55.53;99626.16;4931705;29;20211;-68
2023/12/12 05:05:07;;;;;;;3.43;1.23;;;;;;;19.47;55.40;99624.53;4975466;28;20426;-68
2023/12/12 05:07:32;;;;;;;3.40;1.50;;;;;;;19.45;55.96;99621.28;4914024;29;20510;-67
2023/12/12 05:09:57;;;;;;;2.37;1.20;;;;;;;19.45;55.74;99620.44;4956381;28;20187;-68
2023/12/12 05:12:24;;;;;;;4.00;1.50;;;;;;;19.46;55.79;99625.78;4941652;29;20187;-68
2023/12/12 05:14:50;;;;;;;6.30;1.60;;;;;;;19.50;56.04;99612.28;4902998;29;20186;-67
2023/12/12 05:17:15;;;;;;;4.13;1.67;;;;;;;19.51;55.47;99608.19;4901997;29;20451;-68
2023/12/12 05:19:41;;;;;;;3.23;1.37;;;;;;;19.53;55.51;99616.41;4933841;29;20183;-67
2023/12/12 05:22:06;;;;;;;3.60;1.50;;;;;;;19.51;55.73;99611.06;4927794;29;20222;-68
2023/12/12 05:24:31;;;;;;;2.50;1.40;;;;;;;19.51;55.86;99602.47;4915154;29;20179;-67
2023/12/12 05:26:57;;;;;;;5.40;1.60;;;;;;;19.54;55.29;99603.72;4963554;28;20274;-67
2023/12/12 05:29:22;;;;;;;3.23;1.30;;;;;;;19.51;55.64;99602.47;4928695;29;20351;-67
2023/12/12 05:31:48;;;;;;;4.03;1.67;;;;;;;19.52;55.56;99584.06;4935755;29;20554;-67
2023/12/12 05:34:13;;;;;;;4.10;1.70;;;;;;;19.56;55.76;99587.75;4924980;29;20212;-68
2023/12/12 05:36:39;;;;;;;2.80;1.20;;;;;;;19.54;55.88;99584.50;4921452;29;21009;-68
2023/12/12 05:39:04;;;;;;;4.37;1.33;;;;;;;19.53;55.93;99576.31;4923991;28;20741;-67
2023/12/12 05:41:30;;;;;;;3.27;1.30;;;;;;;19.54;55.82;99584.50;4930261;29;20198;-68
2023/12/12 05:43:57;;;;;;;2.33;1.30;;;;;;;19.56;55.69;99599.22;4951522;28;20187;-68
2023/12/12 05:46:23;;;;;;;3.40;1.70;;;;;;;19.56;55.84;99599.22;4922977;29;20183;-68
2023/12/12 05:48:49;;;;;;;3.00;1.30;;;;;;;19.60;55.64;99608.66;4946132;29;20436;-68
2023/12/12 05:51:14;;;;;;;3.60;1.53;;;;;;;19.59;55.52;99598.41;4958865;28;20441;-67
2023/12/12 05:53:41;;;;;;;3.20;1.53;;;;;;;19.59;55.81;99598.41;4979249;28;20187;-68
2023/12/12 05:56:07;;;;;;;3.40;1.30;;;;;;;19.61;55.67;99606.63;4900386;29;20188;-67
2023/12/12 05:58:32;;;;;;;2.83;1.40;;;;;;;19.67;55.52;99594.34;4947712;29;20840;-68
2023/12/12 06:00:58;;;;;;;3.77;1.60;;;;;;;19.58;55.62;99585.34;4928794;29;20526;-67
2023/12/12 06:03:23;;;;;;;3.20;1.50;;;;;;;19.68;55.44;99589.44;4897560;29;20216;-67
2023/12/12 06:05:49;;;;;;;3.10;1.60;;;;;;;19.61;55.71;99584.50;4944877;29;20231;-67
2023/12/12 06:08:15;;;;;;;2.83;1.40;;;;;;;19.62;55.75;99594.72;4947266;28;20186;-67
2023/12/12 06:10:40;;;;;;;9.07;1.80;;;;;;;19.63;55.83;99593.53;4951174;28;20338;-68
2023/12/12 06:13:06;;;;;;;2.70;1.10;;;;;;;19.62;55.80;99579.59;4905154;29;20428;-68
2023/12/12 06:15:31;;;;;;;3.27;1.20;;;;;;;19.63;56.02;99576.34;4925014;29;20668;-67
2023/12/12 06:17:57;;;;;;;2.23;1.20;;;;;;;19.65;55.78;99590.22;4965038;28;20217;-68
2023/12/12 06:20:23;;;;;;;2.60;1.20;;;;;;;19.64;55.69;99580.84;4939615;28;20551;-67
2023/12/12 06:22:48;;;;;;;1.93;1.17;;;;;;;19.64;55.92;99569.38;4959488;28;20336;-67
2023/12/12 06:25:14;;;;;;;3.87;1.40;;;;;;;19.65;55.73;99567.31;4962730;28;21889;-68
2023/12/12 06:27:39;;;;;;;2.80;1.50;;;;;;;19.65;55.77;99555.88;4966040;28;20180;-68
2023/12/12 06:30:07;;;;;;;4.13;1.20;;;;;;;19.64;55.74;99549.34;4932035;29;20231;-67
2023/12/12 06:32:32;;;;;;;3.47;1.47;;;;;;;19.68;55.45;99555.06;4933563;29;20187;-67
2023/12/12 06:34:59;;;;;;;2.57;1.30;;;;;;;19.67;55.68;99559.97;4910884;29;20479;-67
2023/12/12 06:37:25;;;;;;;1.77;0.97;;;;;;;19.66;55.64;99552.59;4962249;28;20225;-68
2023/12/12 06:39:51;;;;;;;3.00;1.33;;;;;;;19.69;55.96;99545.25;4918847;29;20431;-68
2023/12/12 06:42:17;;;;;;;2.87;1.40;;;;;;;19.68;55.82;99555.06;4905687;29;20211;-69
2023/12/12 06:44:43;;;;;;;3.93;1.80;;;;;;;19.56;56.01;99562.00;4934553;28;20458;-72
2023/12/12 06:47:09;;;;;;;5.70;2.43;;;;;;;19.44;56.54;99565.25;4951716;28;20456;-71
2023/12/12 06:49:35;;;;;;;13.93;3.60;;;;;;;19.68;57.45;99560.78;4921452;29;20214;-73
2023/12/12 06:52:01;;;;;;;13.00;5.10;;;;;;;19.83;57.00;99562.44;4895791;29;20218;-73
2023/12/12 06:54:27;;;;;;;11.73;5.23;;;;;;;19.57;55.58;99557.91;4946728;28;20195;-73
2023/12/12 06:56:52;;;;;;;20.57;10.17;;;;;;;19.61;54.15;99561.59;4916396;29;20446;-71
2023/12/12 06:59:18;;;;;;;18.93;9.00;;;;;;;19.70;54.71;99569.78;4937137;29;20215;-71
2023/12/12 07:01:43;;;;;;;18.70;8.23;;;;;;;19.82;54.39;99561.63;4912988;29;20203;-72
2023/12/12 07:04:09;;;;;;;19.03;7.73;;;;;;;20.34;53.35;99552.25;4959925;28;20220;-70
2023/12/12 07:06:34;;;;;;;24.23;8.17;;;;;;;20.52;53.03;99543.63;4931137;29;20192;-71
2023/12/12 07:09:00;;;;;;;15.13;8.00;;;;;;;20.63;51.99;99535.81;4920729;29;20183;-71
2023/12/12 07:11:25;;;;;;;16.43;9.23;;;;;;;20.74;51.15;99546.03;4928598;29;20183;-71
2023/12/12 07:13:51;;;;;;;18.00;7.70;;;;;;;20.79;50.16;99544.78;4918940;29;20207;-70
2023/12/12 07:16:16;;;;;;;13.30;6.83;;;;;;;20.81;50.39;99540.25;4968712;28;20203;-73
2023/12/12 07:18:42;;;;;;;12.30;6.60;;;;;;;20.85;50.20;99540.25;4917592;29;21836;-72
2023/12/12 07:21:07;;;;;;;13.00;6.40;;;;;;;20.86;49.54;99554.19;4924081;29;20192;-72
2023/12/12 07:23:34;;;;;;;14.40;6.13;;;;;;;21.23;49.19;99545.84;4935991;29;20204;-71
2023/12/12 07:26:00;;;;;;;11.67;6.27;;;;;;;21.51;48.37;99547.75;4972125;28;20196;-72
2023/12/12 07:28:25;;;;;;;13.60;7.10;;;;;;;21.69;48.04;99549.34;4970337;28;20587;-73
2023/12/12 07:30:53;;;;;;;10.23;5.83;;;;;;;21.71;48.29;99546.84;4963577;28;20322;-72
2023/12/12 07:33:18;;;;;;;12.57;6.13;;;;;;;21.65;48.67;99534.13;4916555;29;20292;-72
2023/12/12 07:35:44;;;;;;;26.90;5.90;;;;;;;21.63;48.56;99545.22;4924428;29;20439;-74
2023/12/12 07:38:10;;;;;;;11.50;5.13;;;;;;;21.73;48.12;99547.22;4959194;28;20182;-70
2023/12/12 07:40:35;;;;;;;10.07;5.40;;;;;;;21.78;48.01;99543.91;4924232;29;20575;-73
2023/12/12 07:43:01;;;;;;;15.03;5.67;;;;;;;21.95;47.42;99533.53;4929266;29;20745;-70
2023/12/12 07:45:26;;;;;;;13.17;5.87;;;;;;;22.03;47.39;99512.91;4930077;29;20161;-71
2023/12/12 07:47:52;;;;;;;11.13;4.67;;;;;;;22.05;47.88;99507.59;4916051;29;20172;-71
2023/12/12 07:50:17;;;;;;;9.33;5.07;;;;;;;21.96;48.12;99510.13;4931438;29;20523;-70
2023/12/12 07:52:43;;;;;;;13.57;5.40;;;;;;;21.89;48.05;99501.56;4926308;29;20188;-73
2023/12/12 07:55:09;;;;;;;9.67;5.40;;;;;;;21.80;48.01;99501.22;4912857;29;20184;-72
2023/12/12 07:57:35;;;;;;;10.93;4.93;;;;;;;21.69;48.62;99494.75;4966362;28;20938;-72
2023/12/12 08:00:01;;;;;;;12.60;5.50;;;;;;;21.57;48.77;99485.78;4961525;28;20431;-72
2023/12/12 08:02:27;;;;;;;10.53;5.13;;;;;;;21.41;48.91;99489.16;4947488;28;20515;-72
2023/12/12 08:04:52;;;;;;;12.70;5.50;;;;;;;21.31;49.24;99489.22;4946604;29;20176;-72
2023/12/12 08:07:18;;;;;;;11.57;5.70;;;;;;;21.24;49.64;99475.75;4975175;28;20434;-72
2023/12/12 08:09:44;;;;;;;14.37;6.00;;;;;;;21.17;49.56;99480.69;4924229;29;20195;-72
2023/12/12 08:12:09;;;;;;;12.50;5.13;;;;;;;21.06;49.65;99480.75;4917440;29;20427;-72
2023/12/12 08:14:34;;;;;;;11.50;4.90;;;;;;;20.96;50.43;99487.34;4951042;29;20183;-72
2023/12/12 08:17:00;;;;;;;13.87;5.17;;;;;;;20.90;51.93;99471.81;4966735;28;20195;-72
2023/12/12 08:19:25;;;;;;;22.77;6.30;;;;;;;20.74;52.66;99477.19;4933971;29;20209;-72
2023/12/12 08:21:51;;;;;;;36.83;6.53;;;;;;;20.72;53.12;99473.91;4937683;29;20203;-71
2023/12/12 08:24:16;;;;;;;23.77;6.77;;;;;;;20.60;54.04;99488.69;4921054;29;20192;-72
2023/12/12 08:26:42;;;;;;;27.40;6.80;;;;;;;20.47;54.38;99478.09;4939306;28;20510;-71
2023/12/12 08:29:12;;;;;;;26.10;6.23;;;;;;;20.48;54.54;99479.72;4933046;29;21034;-70
2023/12/12 08:31:38;;;;;;;33.17;6.83;;;;;;;20.46;54.78;99477.25;4941474;29;20534;-72
2023/12/12 08:34:03;;;;;;;23.80;6.93;;;;;;;20.48;54.49;99479.72;4935771;29;20446;-71
2023/12/12 08:36:29;;;;;;;22.30;6.00;;;;;;;20.47;54.87;99470.28;4943114;29;20286;-71
2023/12/12 08:38:55;;;;;;;32.00;5.87;;;;;;;20.45;55.42;99483.41;4916995;29;20621;-71
2023/12/12 08:41:21;;;;;;;25.07;5.80;;;;;;;20.46;55.03;99485.88;4928995;29;20616;-72
2023/12/12 08:43:46;;;;;;;27.13;5.93;;;;;;;20.40;54.97;99484.66;4934084;29;20488;-71
2023/12/12 08:46:12;;;;;;;23.80;5.40;;;;;;;20.45;55.28;99492.00;4941895;29;20179;-71
2023/12/12 08:48:38;;;;;;;22.30;7.10;;;;;;;20.45;55.12;99492.84;4925682;29;20528;-71
2023/12/12 08:51:04;;;;;;;16.03;5.80;;;;;;;20.41;55.42;99496.97;4931356;29;20689;-70
2023/12/12 08:53:29;;;;;;;18.20;5.87;;;;;;;20.42;55.26;99482.19;4948605;28;20442;-71
2023/12/12 08:55:55;;;;;;;24.13;5.97;;;;;;;20.43;55.13;99486.72;4922053;29;20832;-71
2023/12/12 08:58:25;;;;;;;17.60;5.37;;;;;;;20.37;55.44;99476.06;4934903;29;20726;-71
2023/12/12 09:00:54;;;;;;;25.50;5.20;;;;;;;20.35;55.52;99487.13;4964295;28;20185;-72
2023/12/12 09:03:19;;;;;;;18.97;6.20;;;;;;;20.34;55.83;99489.19;4919166;29;20474;-72
2023/12/12 09:05:45;;;;;;;20.47;6.10;;;;;;;20.31;56.06;99490.00;4953669;28;20802;-71
2023/12/12 09:08:10;;;;;;;25.17;5.70;;;;;;;20.31;56.00;99483.47;4935408;29;20194;-72
2023/12/12 09:10:36;;;;;;;18.63;5.67;;;;;;;20.30;55.90;99474.03;4945111;29;20182;-71
2023/12/12 09:13:02;;;;;;;20.17;5.87;;;;;;;20.31;56.24;99477.72;4916407;29;20214;-72
2023/12/12 09:15:28;;;;;;;23.47;5.87;;;;;;;20.29;55.98;99478.13;4964822;28;21316;-71
2023/12/12 09:17:53;;;;;;;19.80;5.10;;;;;;;20.29;56.44;99478.13;4966471;28;20434;-72
2023/12/12 09:20:18;;;;;;;14.73;5.30;;;;;;;20.27;56.19;99474.06;4938461;29;20818;-72
2023/12/12 09:22:44;;;;;;;19.13;5.23;;;;;;;20.29;55.99;99478.13;4935862;29;20206;-71
2023/12/12 09:25:10;;;;;;;13.53;5.10;;;;;;;20.26;56.34;99466.69;4922333;29;20184;-71
2023/12/12 09:27:35;;;;;;;18.40;5.23;;;;;;;20.25;55.93;99471.59;4930695;29;20203;-71
2023/12/12 09:30:00;;;;;;;16.30;5.33;;;;;;;20.23;56.04;99462.59;4916400;29;20236;-72
2023/12/12 09:32:26;;;;;;;12.97;4.83;;;;;;;20.24;56.55;99457.66;4956931;28;20179;-70
2023/12/12 09:34:51;;;;;;;16.70;5.33;;;;;;;20.25;55.90;99453.56;4917048;29;20199;-71
2023/12/12 09:37:17;;;;;;;14.67;4.97;;;;;;;20.25;56.08;99457.25;4934311;29;20179;-71
2023/12/12 09:39:42;;;;;;;12.80;5.23;;;;;;;20.20;56.21;99442.53;4931229;29;20179;-72
2023/12/12 09:42:11;;;;;;;20.37;5.83;;;;;;;20.20;56.40;99443.34;4917881;29;20203;-72
2023/12/12 09:44:37;;;;;;;11.37;5.10;;;;;;;20.19;56.17;99426.56;4964741;28;20201;-71
2023/12/12 09:47:03;;;;;;;15.73;4.63;;;;;;;20.20;56.26;99423.28;4933133;29;20450;-69
2023/12/12 09:49:29;;;;;;;17.77;4.90;;;;;;;20.18;56.45;99419.19;4935608;29;20175;-69
2023/12/12 09:51:55;;;;;;;20.93;4.80;;;;;;;20.19;56.44;99413.06;4935265;29;20883;-69
2023/12/12 09:54:20;;;;;;;15.17;4.30;;;;;;;20.17;56.72;99424.09;4931488;29;20450;-69
2023/12/12 09:56:46;;;;;;;19.63;5.57;;;;;;;20.17;56.54;99412.63;4935027;29;20669;-69
2023/12/12 09:59:11;;;;;;;19.60;4.40;;;;;;;20.16;56.63;99405.28;4934525;29;20176;-68
2023/12/12 10:01:36;;;;;;;24.80;5.67;;;;;;;20.15;56.65;99411.41;4924779;29;20178;-69
2023/12/12 10:04:06;;;;;;;17.27;5.60;;;;;;;20.18;56.64;99405.69;4918791;29;20171;-69
2023/12/12 10:06:35;;;;;;;16.30;4.97;;;;;;;20.16;56.41;99390.16;4925469;29;20187;-69
2023/12/12 10:09:00;;;;;;;12.47;5.10;;;;;;;20.15;56.85;99394.22;4947005;29;20880;-69
2023/12/12 10:11:26;;;;;;;14.13;5.17;;;;;;;20.15;56.62;99392.19;4914851;29;20503;-68
2023/12/12 10:13:54;;;;;;;16.80;6.47;;;;;;;20.13;56.61;99383.19;4923600;29;20230;-69
2023/12/12 10:16:20;;;;;;;13.27;5.17;;;;;;;20.13;56.63;99370.91;4936741;29;20190;-69
2023/12/12 10:18:46;;;;;;;16.87;5.43;;;;;;;20.12;56.48;99375.81;4915671;29;20931;-69
2023/12/12 10:21:16;;;;;;;21.23;5.53;;;;;;;20.09;56.74;99368.06;4915390;29;20183;-69
2023/12/12 10:23:45;;;;;;;15.77;4.97;;;;;;;20.09;56.67;99362.31;4949698;28;20467;-69
2023/12/12 10:26:12;;;;;;;12.83;4.80;;;;;;;20.11;56.94;99356.19;4951360;28;20431;-69
2023/12/12 10:28:37;;;;;;;21.67;6.13;;;;;;;20.10;56.54;99349.63;4931051;29;20427;-69
2023/12/12 10:31:03;;;;;;;12.73;4.00;;;;;;;20.12;56.62;99334.88;4925716;29;21027;-70
2023/12/12 10:33:29;;;;;;;17.00;5.93;;;;;;;20.11;56.55;99325.47;4914834;29;20204;-69
2023/12/12 10:35:54;;;;;;;11.60;4.33;;;;;;;20.09;56.78;99319.34;4896935;29;20188;-68
2023/12/12 10:38:24;;;;;;;13.90;4.80;;;;;;;20.08;56.82;99311.97;4941911;29;20181;-69
2023/12/12 10:40:49;;;;;;;18.77;4.63;;;;;;;20.10;56.76;99306.66;4926787;29;20169;-70
2023/12/12 10:43:15;;;;;;;13.80;3.80;;;;;;;20.09;56.81;99299.28;4941785;28;20459;-69
2023/12/12 10:45:43;;;;;;;16.00;4.67;;;;;;;20.07;56.72;99286.56;4961589;28;20540;-69
2023/12/12 10:48:09;;;;;;;12.60;4.40;;;;;;;20.08;56.68;99283.34;4914024;29;20172;-69
2023/12/12 10:50:34;;;;;;;13.07;4.30;;;;;;;20.10;56.91;99280.84;4912170;29;20495;-69
2023/12/12 10:53:00;;;;;;;23.40;5.57;;;;;;;20.08;56.90;99282.50;4956916;28;20200;-70
2023/12/12 10:55:25;;;;;;;13.43;4.73;;;;;;;20.06;56.87;99282.88;4961655;28;20697;-69
2023/12/12 10:57:51;;;;;;;15.30;4.47;;;;;;;20.08;56.79;99259.56;4951211;28;20244;-69
2023/12/12 11:00:17;;;;;;;11.20;4.40;;;;;;;20.04;57.22;99253.84;4943734;29;20192;-70
2023/12/12 11:02:44;;;;;;;15.10;4.50;;;;;;;20.07;56.79;99252.19;4948277;28;20566;-70
2023/12/12 11:05:10;;;;;;;14.03;4.80;;;;;;;20.07;56.85;99244.41;4899772;29;20187;-69
2023/12/12 11:07:36;;;;;;;11.03;4.10;;;;;;;20.07;56.80;99249.31;4911610;29;20543;-69
2023/12/12 11:10:05;;;;;;;11.33;4.00;;;;;;;20.07;57.19;99238.69;4963003;28;20408;-69
2023/12/12 11:12:30;;;;;;;11.90;4.87;;;;;;;20.10;56.94;99234.19;4937916;29;20593;-69
2023/12/12 11:14:56;;;;;;;10.87;4.63;;;;;;;20.09;56.55;99219.06;4943681;29;20435;-68
2023/12/12 11:17:21;;;;;;;9.10;4.20;;;;;;;20.06;56.64;99221.91;4956385;28;20184;-68
2023/12/12 11:19:46;;;;;;;9.17;3.90;;;;;;;20.06;57.47;99205.50;4930410;29;20199;-70
2023/12/12 11:22:38;;;;;;;13.27;4.30;;;;;;;20.04;57.38;99205.13;4962861;28;20206;-70